North Attleboro, Massachusetts
Current Conditions -  °F | °C
As of 9:35 AM on Sunday 21 Dec 2014 (Local Time) from KSFZ Reporting Station
Overcast Overcast  
Wind Chill: 22°   Ceiling: 800
Heat Index: 30°   Visibility: 10mi
Dew Point: 23°   Wind: 9mph
Humidity: 75%   Direction: 10°N
Pressure: 30.29"   Gusts: NA
Location:  41.98°N, 71.33°W
Report Text: KSFZ 211435Z 01008KT 10SM OVC008 M01/M05 A3029 RMK AO1
Loading
Personal Weather Stations






























Interactive Weather Map New forecast layout! Learn more

10-Day Weather Forecast

Advertisements
Track Severe Weather on mobile